To NAV CANADA Home Page Login to a new session Search on AWWS site Feedback and Comments Disclaimer Vers la page française équivalente Tips FAQ What's new on the site To the Forecasts and Observations / NOTAM section To "File a Flight Plan" website Publications and other links Update of the User's profile FIC Telephone Numbers My Weather Data Folder Route Weather Data Regional Weather Data Local Weather Data To the Forecasts and Observations / NOTAM section
Request Generated 01/17/2017 at 04:44:21 UTC . Weather information available at that time is displayed.


Go to a specific product

Save this request

NOTAM

NOTAM


SIGMET
To the Product Selector

SIGMETS GFACN32

WSCN32 CWEG 170343
SIGMET I2 VALID 170340/170740 CWEG-
CZEG EDMONTON FIR SEV TURB OBS WTN 25 NM OF LINE /N4925 W11428/45 E CYXC -
/N4926 W11306/15 SW CYQL SFC/FL070 QS INTSFYG
RMK GFACN32 GFACN31=
END/WSCN22/CWAO



AIRMET
To the Product Selector

AIRMETS GFACN32

GFACN32 - No AIRMET bulletins in effect



PIREP
To the Product Selector

FIR_WINNIPEG (WG)


UACN01 CYTH 170100
WG
UUA /OV CYTH /TM 0053 /FLDURD /TP AT72 /RM LLWS ON APCH RWY 06. WIND
24020KT AT 500FT AGL, 24014KT AT 200FT AGL VELOCITY LWR AT SFC


METAR/TAF
To the Product Selector

REGINA/REGINA INTL/SK    

METAR CYQR 170400Z 13009KT 15SM FEW280 M10/M12 A2991 RMK CI1 SLP174=
METAR CYQR 170300Z 15006KT 15SM FEW280 M08/M10 A2993 RMK CI2 SLP181=
METAR CYQR 170200Z 13010KT 15SM SCT280 M10/M11 A2993 RMK CI3 SLP183=

TAF CYQR 162342Z 1700/1724 13010KT P6SM FEW100 BKN250
BECMG 1703/1705 17015KT
BECMG 1716/1718 23012KT
RMK NXT FCST BY 170600Z=

MOOSE JAW/AIR VICE MARSHAL C.M. MCEWEN/SK    

CYMJ - METAR not available

TAF AMD CYMJ 162331Z 1620/1706 FCST CNCLD DUE END OF FLYING PROGRAM
RMK NXT FCST WILL BE ISSUED AT 171215Z=


RADAR PCPN RATE
To the Product Selector
Pacific Canada      Western Canada     

SATELLITE VISIBLE
To the Product Selector
West Canada      

SATELLITE INFRARED
To the Product Selector
West Canada     

GRAPHICAL FA CLOUDS & WEATHER FORECASTS
To the Product Selector
Graphical FA gfacn32      

GRAPHICAL FA ICING, TURBULENCE & FREEZING LEVEL FORECASTS
To the Product Selector
Graphical FA gfacn32      

FDTEXT Low Level FD. Temperatures are not forecast for the 3,000-foot level.
To the Product Selector
STN YQR - REGINA. SASK for use 3000 6000 9000 12000 18000
FDCN01 CWAO FCST BASED ON 170000 DATA VALID 170600 05-09 2325+01 2617+00 2926-04 3239-14
FDCN02 CWAO FCST BASED ON 170000 DATA VALID 171200 09-18 2825+08 2930+03 3035-01 3038-14
FDCN03 CWAO FCST BASED ON 170000 DATA VALID 180000 18-05 2916+06 2642+02 2849-03 2847-12



Your time UTC time
Weather data provided by Environment Canada and NAV CANADA